Terminal Aerodrome Forecast
Issued by NWS Wilmington, OH

Current Version | Previous Version | Graphics & Text | Print | Product List | Glossary On
Versions: 1 2 3 4 5 6 7 8 9 10 11 12 13 14 15 16 17 18 19 20 21
000
FTUS41 KILN 160222 AAC
TAFILN
TAF AMD
KILN 160222Z 1602/1624 25014KT P6SM SCT006 OVC025
      TEMPO 1603/1604 OVC035
     FM160400 27012KT P6SM SKC
     FM160830 27012KT P6SM BKN012
     FM161800 29011KT P6SM BKN025
     FM162300 30008KT P6SM SCT022=

USA.gov is the U.S. government's official web portal to all federal, state and local government web resources and services.